Time;durP1;ratioP1;P1;durP2;ratioP2;P2;SDS_P1;SDS_P2;PMS_P1;PMS_P2;Temp;Humidity;BMP_temperature;BMP_pressure;BME280_temperature;BME280_humidity;BME280_pressure;Samples;Min_cycle;Max_cycle;Signal;HPM_P1;HPM_P2
2023/01/07 00:00:31;;;;;;;5.05;1.77;;;19.30;99.90;;;;;;4968080;28;20205;-82
2023/01/07 00:03:03;;;;;;;6.35;1.95;;;19.20;99.90;;;;;;4972191;28;20218;-81
2023/01/07 00:05:34;;;;;;;9.90;2.08;;;19.20;99.90;;;;;;4967729;28;20226;-81
2023/01/07 00:08:07;;;;;;;7.10;2.10;;;19.40;99.90;;;;;;4967622;28;20335;-81
2023/01/07 00:10:38;;;;;;;5.10;1.83;;;19.40;99.90;;;;;;4967615;28;20207;-81
2023/01/07 00:13:09;;;;;;;12.70;2.45;;;19.50;99.90;;;;;;4967714;28;20198;-82
2023/01/07 00:15:40;;;;;;;6.18;1.77;;;19.50;99.90;;;;;;4967586;28;20208;-82
2023/01/07 00:18:11;;;;;;;6.75;1.90;;;19.60;99.90;;;;;;4967352;28;20209;-82
2023/01/07 00:20:41;;;;;;;9.13;2.00;;;19.50;99.90;;;;;;4967429;28;20205;-82
2023/01/07 00:23:14;;;;;;;7.82;1.77;;;19.60;99.90;;;;;;4968260;28;20654;-82
2023/01/07 00:25:45;;;;;;;8.73;2.30;;;19.50;99.90;;;;;;4967692;28;20240;-83
2023/01/07 00:28:16;;;;;;;8.98;1.90;;;19.50;99.90;;;;;;4966730;28;20624;-82
2023/01/07 00:30:48;;;;;;;8.82;1.95;;;19.50;99.90;;;;;;4968038;28;20213;-84
2023/01/07 00:33:20;;;;;;;9.02;1.95;;;19.50;99.90;;;;;;4967305;28;20257;-81
2023/01/07 00:36:00;;;;;;;7.47;1.95;;;19.60;99.90;;;;;;4967764;28;20212;-82
2023/01/07 00:38:32;;;;;;;10.52;2.15;;;19.60;99.90;;;;;;4972566;28;20228;-82
2023/01/07 00:41:03;;;;;;;8.93;1.92;;;19.60;99.90;;;;;;4982613;28;20332;-81
2023/01/07 00:43:34;;;;;;;8.93;1.77;;;19.60;99.90;;;;;;4968200;28;20694;-80
2023/01/07 00:46:06;;;;;;;9.60;1.63;;;19.70;99.90;;;;;;4974782;28;20219;-83
2023/01/07 00:48:37;;;;;;;11.43;2.05;;;19.90;99.90;;;;;;4966945;28;20195;-81
2023/01/07 00:51:10;;;;;;;10.57;2.08;;;20.00;99.90;;;;;;4968967;28;20203;-82
2023/01/07 00:53:45;;;;;;;8.23;1.80;;;20.00;99.90;;;;;;4967261;28;20199;-82
2023/01/07 00:56:17;;;;;;;7.05;1.75;;;19.90;99.90;;;;;;4963798;28;21344;-83
2023/01/07 00:58:48;;;;;;;6.57;1.98;;;20.00;99.90;;;;;;4965706;28;20237;-83
2023/01/07 01:01:19;;;;;;;9.98;2.28;;;20.00;99.90;;;;;;4966104;28;20207;-83
2023/01/07 01:03:50;;;;;;;8.82;2.20;;;20.10;99.90;;;;;;4965673;28;20674;-83
2023/01/07 01:06:21;;;;;;;10.05;1.80;;;20.10;99.90;;;;;;4970115;28;20222;-83
2023/01/07 01:08:53;;;;;;;7.00;1.45;;;20.20;99.90;;;;;;4966612;28;20658;-82
2023/01/07 01:11:24;;;;;;;6.82;1.70;;;20.30;99.90;;;;;;4965416;28;20199;-83
2023/01/07 01:13:55;;;;;;;6.65;1.73;;;20.30;99.90;;;;;;4966960;28;20677;-83
2023/01/07 01:16:27;;;;;;;7.13;2.00;;;20.30;99.90;;;;;;4965567;28;20214;-83
2023/01/07 01:18:58;;;;;;;10.50;2.25;;;20.30;99.90;;;;;;4965865;28;20226;-83
2023/01/07 01:21:30;;;;;;;6.05;1.77;;;20.40;99.90;;;;;;4966554;28;20203;-83
2023/01/07 01:24:03;;;;;;;7.38;1.90;;;20.50;99.90;;;;;;4965697;28;20219;-83
2023/01/07 01:26:34;;;;;;;10.55;1.88;;;20.60;99.90;;;;;;4964929;28;20234;-83
2023/01/07 01:29:05;;;;;;;7.05;1.83;;;20.60;99.90;;;;;;4966967;28;20221;-83
2023/01/07 01:31:36;;;;;;;8.48;1.70;;;20.60;99.90;;;;;;4967210;28;20222;-84
2023/01/07 01:34:07;;;;;;;8.55;1.65;;;20.60;99.90;;;;;;4967259;28;20195;-83
2023/01/07 01:36:38;;;;;;;8.25;1.90;;;20.70;99.90;;;;;;4967367;28;20670;-83
2023/01/07 01:39:10;;;;;;;8.57;1.70;;;20.70;99.90;;;;;;4966057;28;20674;-83
2023/01/07 01:41:41;;;;;;;9.35;1.85;;;20.70;99.90;;;;;;4971004;28;20205;-84
2023/01/07 01:44:40;;;;;;;7.70;1.73;;;20.80;99.90;;;;;;4980589;28;20257;-83
2023/01/07 01:47:19;;;;;;;8.68;2.05;;;20.80;99.90;;;;;;4971618;28;20236;-84
2023/01/07 01:49:55;;;;;;;7.72;2.00;;;21.00;99.90;;;;;;4966756;28;20218;-85
2023/01/07 01:52:32;;;;;;;5.70;1.70;;;21.10;99.90;;;;;;4968145;28;20203;-85
2023/01/07 01:55:08;;;;;;;9.43;1.85;;;21.20;99.90;;;;;;4967162;28;20195;-86
2023/01/07 01:57:40;;;;;;;6.40;1.65;;;21.30;99.90;;;;;;4965778;28;20202;-85
2023/01/07 02:00:15;;;;;;;11.13;2.22;;;21.50;99.90;;;;;;4966572;28;20203;-84
2023/01/07 02:02:51;;;;;;;10.32;1.83;;;21.60;99.90;;;;;;4965348;28;20345;-85
2023/01/07 02:05:22;;;;;;;9.35;1.52;;;21.70;99.90;;;;;;4966311;28;20209;-85
2023/01/07 02:07:53;;;;;;;9.63;1.73;;;21.80;99.90;;;;;;4966983;28;20226;-86
2023/01/07 02:10:30;;;;;;;7.55;1.88;;;21.90;99.90;;;;;;4966199;28;20306;-85
2023/01/07 02:13:17;;;;;;;9.20;1.65;;;21.90;99.90;;;;;;4968374;28;20739;-84
2023/01/07 02:15:56;;;;;;;6.57;1.27;;;22.00;99.90;;;;;;4968700;28;20202;-86
2023/01/07 02:18:42;;;;;;;10.52;1.90;;;22.20;99.90;;;;;;4952348;28;20203;-86
2023/01/07 02:21:25;;;;;;;5.32;1.10;;;22.20;99.90;;;;;;4967212;28;20198;-86
2023/01/07 02:24:19;;;;;;;5.82;1.10;;;22.30;99.90;;;;;;4967286;28;20593;-85
2023/01/07 02:27:17;;;;;;;6.38;1.50;;;22.50;99.90;;;;;;4970770;28;20381;-84
2023/01/07 02:30:38;;;;;;;9.55;1.48;;;22.70;99.90;;;;;;4967678;28;20199;-85
2023/01/07 02:33:39;;;;;;;6.10;1.40;;;22.80;99.90;;;;;;4966127;28;20199;-85
2023/01/07 02:36:33;;;;;;;5.53;1.40;;;22.80;99.90;;;;;;4966246;28;20213;-85
2023/01/07 02:39:19;;;;;;;6.00;1.40;;;22.80;99.90;;;;;;4968137;28;20206;-86
2023/01/07 02:41:59;;;;;;;8.73;1.65;;;22.80;99.90;;;;;;4977088;28;20198;-86
2023/01/07 02:44:36;;;;;;;5.78;1.73;;;22.90;99.90;;;;;;4987185;28;20202;-86
2023/01/07 02:47:14;;;;;;;6.13;1.60;;;22.90;99.90;;;;;;4973479;28;20260;-85
2023/01/07 02:49:49;;;;;;;6.38;1.35;;;22.90;99.90;;;;;;4968993;28;20207;-86
2023/01/07 02:52:23;;;;;;;9.02;1.77;;;22.90;99.90;;;;;;4974338;28;20649;-85
2023/01/07 02:54:59;;;;;;;6.50;1.88;;;22.90;99.90;;;;;;4974285;28;20199;-85
2023/01/07 02:57:55;;;;;;;7.05;1.50;;;22.80;99.90;;;;;;4971747;28;20207;-85
2023/01/07 03:00:39;;;;;;;8.55;1.60;;;22.70;99.90;;;;;;4965683;28;20215;-84
2023/01/07 03:03:24;;;;;;;6.13;1.50;;;22.70;99.90;;;;;;4969553;28;20194;-84
2023/01/07 03:06:06;;;;;;;7.70;1.60;;;22.80;99.90;;;;;;4969123;28;20198;-84
2023/01/07 03:08:51;;;;;;;6.97;1.20;;;22.80;99.90;;;;;;4971524;28;20286;-85
2023/01/07 03:11:25;;;;;;;8.25;1.40;;;22.70;99.90;;;;;;4969096;28;20203;-84
2023/01/07 03:14:03;;;;;;;6.90;1.30;;;22.70;99.90;;;;;;4968707;28;20578;-84
2023/01/07 03:16:39;;;;;;;5.82;1.40;;;22.70;99.90;;;;;;4972121;28;20207;-84
2023/01/07 03:19:13;;;;;;;6.32;1.40;;;22.80;99.90;;;;;;4968049;28;20226;-85
2023/01/07 03:21:49;;;;;;;9.73;3.28;;;22.90;99.90;;;;;;4971638;28;20205;-85
2023/01/07 03:24:20;;;;;;;5.28;1.30;;;22.90;99.90;;;;;;4969170;28;20589;-85
2023/01/07 03:26:55;;;;;;;5.47;1.10;;;22.90;99.90;;;;;;4973407;28;20242;-85
2023/01/07 03:29:27;;;;;;;6.53;1.90;;;22.90;99.90;;;;;;4967198;28;20198;-86
2023/01/07 03:32:02;;;;;;;7.25;1.33;;;22.90;99.90;;;;;;4968010;28;20220;-85
2023/01/07 03:34:34;;;;;;;6.32;1.65;;;22.80;99.90;;;;;;4969448;28;20273;-85
2023/01/07 03:37:10;;;;;;;7.00;1.40;;;22.70;99.90;;;;;;4967880;28;20211;-84
2023/01/07 03:39:41;;;;;;;5.07;1.30;;;22.70;99.90;;;;;;4969966;28;20467;-84
2023/01/07 03:45:01;;;;;;;5.32;1.08;;;23.00;99.90;;;;;;4977351;28;20289;-83
2023/01/07 03:47:33;;;;;;;4.22;1.40;;;22.90;99.90;;;;;;4968210;28;20246;-84
2023/01/07 03:50:04;;;;;;;8.05;1.35;;;23.00;99.90;;;;;;4967821;28;20285;-83
2023/01/07 03:52:38;;;;;;;5.85;1.13;;;23.10;99.90;;;;;;4966691;28;21444;-83
2023/01/07 03:55:11;;;;;;;3.53;1.02;;;23.30;99.90;;;;;;4966418;28;20698;-84
2023/01/07 03:57:42;;;;;;;4.53;1.10;;;23.40;99.90;;;;;;4967226;28;20299;-84
2023/01/07 04:00:15;;;;;;;6.50;1.63;;;23.60;99.90;;;;;;4966564;28;20202;-83
2023/01/07 04:02:46;;;;;;;5.13;1.08;;;23.60;99.90;;;;;;4965566;28;20205;-83
2023/01/07 04:05:17;;;;;;;4.75;1.00;;;23.50;99.90;;;;;;4968517;28;21451;-83
2023/01/07 04:07:50;;;;;;;5.63;1.33;;;23.50;99.90;;;;;;4965076;28;20227;-84
2023/01/07 04:10:21;;;;;;;7.50;1.45;;;23.60;99.90;;;;;;4969631;28;20203;-85
2023/01/07 04:12:52;;;;;;;5.45;1.40;;;23.50;99.90;;;;;;4966317;28;20207;-84
2023/01/07 04:15:23;;;;;;;3.08;0.90;;;23.60;99.90;;;;;;4966807;28;20681;-84
2023/01/07 04:17:54;;;;;;;7.65;1.48;;;23.70;99.90;;;;;;4946978;28;20401;-84
2023/01/07 04:20:25;;;;;;;5.20;1.20;;;23.60;99.90;;;;;;4968058;28;20573;-83
2023/01/07 04:22:58;;;;;;;5.68;1.40;;;23.60;99.90;;;;;;4966361;28;20198;-83
2023/01/07 04:25:28;;;;;;;5.18;1.20;;;23.70;99.90;;;;;;4966231;28;20218;-83
2023/01/07 04:27:59;;;;;;;7.05;1.30;;;23.80;99.90;;;;;;4966529;28;20599;-84
2023/01/07 04:30:30;;;;;;;7.95;1.40;;;23.90;99.90;;;;;;4968409;28;20654;-84
2023/01/07 04:33:01;;;;;;;6.97;1.30;;;23.90;99.90;;;;;;4967900;28;20195;-84
2023/01/07 04:35:32;;;;;;;5.53;1.50;;;23.80;99.90;;;;;;4967730;28;20237;-84
2023/01/07 04:38:05;;;;;;;7.55;1.40;;;23.80;99.90;;;;;;4972063;28;20202;-84
2023/01/07 04:40:37;;;;;;;6.97;1.20;;;23.80;99.90;;;;;;4969041;28;20206;-84
2023/01/07 04:43:07;;;;;;;5.72;1.30;;;23.90;99.90;;;;;;4984511;28;20218;-84
2023/01/07 04:45:38;;;;;;;5.40;1.35;;;23.90;99.90;;;;;;4974540;28;20229;-84
2023/01/07 04:48:09;;;;;;;5.55;1.38;;;23.90;99.90;;;;;;4968580;28;20226;-85
2023/01/07 04:50:40;;;;;;;8.88;1.67;;;24.10;99.90;;;;;;4968336;28;22118;-85
2023/01/07 04:53:13;;;;;;;4.43;1.25;;;24.20;99.90;;;;;;4970247;28;20203;-84
2023/01/07 04:55:44;;;;;;;5.30;1.20;;;24.20;99.90;;;;;;4966571;28;20670;-84
2023/01/07 04:58:15;;;;;;;4.70;1.17;;;24.00;99.90;;;;;;4965764;28;20213;-84
2023/01/07 05:00:47;;;;;;;6.45;1.20;;;24.00;99.90;;;;;;4968641;28;20212;-84
2023/01/07 05:03:18;;;;;;;5.15;1.38;;;23.90;99.90;;;;;;4967853;28;20202;-85
2023/01/07 05:05:49;;;;;;;3.50;1.13;;;23.90;99.90;;;;;;4966869;28;21583;-84
2023/01/07 05:08:23;;;;;;;7.25;1.35;;;23.60;99.90;;;;;;4967018;28;20780;-84
2023/01/07 05:10:55;;;;;;;3.55;0.95;;;23.50;99.90;;;;;;4965773;28;20209;-83
2023/01/07 05:13:26;;;;;;;8.93;1.42;;;23.50;99.90;;;;;;4964379;28;20203;-83
2023/01/07 05:15:57;;;;;;;12.10;1.60;;;23.40;99.90;;;;;;4965431;28;20236;-83
2023/01/07 05:18:31;;;;;;;5.93;1.20;;;23.40;99.90;;;;;;4967392;28;20393;-83
2023/01/07 05:21:02;;;;;;;5.38;1.40;;;23.30;99.90;;;;;;4967087;28;20230;-83
2023/01/07 05:23:35;;;;;;;5.68;1.23;;;23.40;99.90;;;;;;4967437;28;20205;-82
2023/01/07 05:26:08;;;;;;;4.43;1.27;;;23.40;99.90;;;;;;4962914;28;20252;-84
2023/01/07 05:28:39;;;;;;;7.65;1.65;;;23.40;99.90;;;;;;4945431;28;20223;-83
2023/01/07 05:31:10;;;;;;;7.95;1.88;;;23.40;99.90;;;;;;4948063;28;20214;-83
2023/01/07 05:33:40;;;;;;;6.25;1.50;;;23.50;99.90;;;;;;4948723;28;20210;-84
2023/01/07 05:36:11;;;;;;;10.82;1.80;;;23.30;99.90;;;;;;4950975;28;20566;-84
2023/01/07 05:38:44;;;;;;;6.75;1.42;;;23.20;99.90;;;;;;4946096;28;20203;-84
2023/01/07 05:41:15;;;;;;;7.88;1.52;;;23.10;99.90;;;;;;4949447;28;20654;-83
2023/01/07 05:43:47;;;;;;;5.00;1.23;;;23.00;99.90;;;;;;4970845;28;20278;-85
2023/01/07 05:46:18;;;;;;;6.03;1.50;;;22.90;99.90;;;;;;4948068;28;20207;-83
2023/01/07 05:48:48;;;;;;;7.65;1.95;;;22.90;99.90;;;;;;4946576;28;20233;-84
2023/01/07 05:51:20;;;;;;;7.72;2.35;;;22.90;99.90;;;;;;4946635;28;20210;-84
2023/01/07 05:53:56;;;;;;;8.02;2.92;;;22.70;99.90;;;;;;4946788;28;20667;-85
2023/01/07 05:56:30;;;;;;;8.60;1.92;;;22.60;99.90;;;;;;4947029;28;20207;-84
2023/01/07 05:59:01;;;;;;;6.28;1.77;;;22.50;99.90;;;;;;4944925;28;20930;-84
2023/01/07 06:01:32;;;;;;;5.47;1.52;;;22.40;99.90;;;;;;4946607;28;20513;-85
2023/01/07 06:04:05;;;;;;;5.00;1.48;;;22.30;99.90;;;;;;4947867;28;20202;-84
2023/01/07 06:06:36;;;;;;;5.60;1.40;;;22.30;99.90;;;;;;4949114;28;20253;-83
2023/01/07 06:09:10;;;;;;;5.55;1.50;;;22.20;99.90;;;;;;4948065;28;20235;-84
2023/01/07 06:11:44;;;;;;;4.20;1.30;;;22.20;99.90;;;;;;4949694;28;20286;-84
2023/01/07 06:14:15;;;;;;;4.35;1.45;;;22.20;99.90;;;;;;4950334;28;20199;-84
2023/01/07 06:16:46;;;;;;;7.75;1.38;;;22.20;99.90;;;;;;4948820;28;20195;-84
2023/01/07 06:19:17;;;;;;;5.65;1.40;;;22.30;99.90;;;;;;4945867;28;20290;-84
2023/01/07 06:21:47;;;;;;;5.47;1.73;;;22.30;99.90;;;;;;4948899;28;20203;-84
2023/01/07 06:24:20;;;;;;;5.57;1.40;;;22.30;99.90;;;;;;4950123;28;20219;-83
2023/01/07 06:26:51;;;;;;;9.82;1.80;;;22.30;99.90;;;;;;4960676;28;20285;-84
2023/01/07 06:29:22;;;;;;;7.57;1.40;;;22.30;99.90;;;;;;4968401;28;20840;-83
2023/01/07 06:31:53;;;;;;;5.90;1.35;;;22.30;99.90;;;;;;4967466;28;20254;-83
2023/01/07 06:34:24;;;;;;;12.23;1.70;;;22.30;99.90;;;;;;4966789;28;20206;-83
2023/01/07 06:36:55;;;;;;;8.98;1.35;;;22.10;99.90;;;;;;4969664;28;21642;-84
2023/01/07 06:39:28;;;;;;;5.55;1.50;;;22.10;99.90;;;;;;4970462;28;20211;-84
2023/01/07 06:41:58;;;;;;;6.22;1.70;;;21.90;99.90;;;;;;4970474;28;20218;-84
2023/01/07 06:44:29;;;;;;;7.35;1.90;;;21.90;99.90;;;;;;4982937;28;20523;-84
2023/01/07 06:47:00;;;;;;;6.15;1.63;;;21.90;99.90;;;;;;4975332;28;20191;-83
2023/01/07 06:49:31;;;;;;;4.75;1.20;;;21.80;99.90;;;;;;4965398;28;20227;-84
2023/01/07 06:52:02;;;;;;;8.50;1.90;;;21.80;99.90;;;;;;4971572;28;20213;-84
2023/01/07 06:54:34;;;;;;;5.35;1.42;;;21.70;99.90;;;;;;4968116;28;20203;-83
2023/01/07 06:57:05;;;;;;;5.82;1.40;;;21.60;99.90;;;;;;4965116;28;20934;-82
2023/01/07 06:59:36;;;;;;;5.60;1.42;;;21.50;99.90;;;;;;4965827;28;20692;-82
2023/01/07 07:02:07;;;;;;;6.38;1.45;;;21.40;99.90;;;;;;4964941;28;20205;-81
2023/01/07 07:04:38;;;;;;;5.22;1.27;;;21.40;99.90;;;;;;4966099;28;20850;-82
2023/01/07 07:07:09;;;;;;;6.78;1.50;;;21.40;99.90;;;;;;4966497;28;20560;-83
2023/01/07 07:09:41;;;;;;;5.78;1.40;;;21.40;99.90;;;;;;4968033;28;20249;-80
2023/01/07 07:12:12;;;;;;;3.90;0.90;;;21.30;99.90;;;;;;4965948;28;20217;-82
2023/01/07 07:14:43;;;;;;;5.35;1.15;;;21.30;99.90;;;;;;4966063;28;20681;-82
2023/01/07 07:17:14;;;;;;;5.10;1.58;;;21.20;99.90;;;;;;4963086;28;22315;-82
2023/01/07 07:19:45;;;;;;;7.15;1.60;;;21.20;99.90;;;;;;4965606;28;20207;-83
2023/01/07 07:22:17;;;;;;;6.05;1.38;;;21.30;99.90;;;;;;4964694;28;20206;-82
2023/01/07 07:24:50;;;;;;;4.05;1.20;;;21.30;99.90;;;;;;4964763;28;20276;-83
2023/01/07 07:27:21;;;;;;;5.55;1.92;;;21.30;99.90;;;;;;4964516;28;20236;-83
2023/01/07 07:29:51;;;;;;;3.85;1.48;;;21.20;99.90;;;;;;4966082;28;20222;-83
2023/01/07 07:32:27;;;;;;;4.15;1.58;;;21.20;99.90;;;;;;4964327;28;20206;-82
2023/01/07 07:34:58;;;;;;;2.80;1.10;;;21.20;99.90;;;;;;4964175;28;20278;-82
2023/01/07 07:37:28;;;;;;;2.42;0.70;;;21.20;99.90;;;;;;4969688;28;20657;-83
2023/01/07 07:40:01;;;;;;;5.50;1.05;;;21.20;99.90;;;;;;4969058;28;20207;-83
2023/01/07 07:42:32;;;;;;;3.78;1.35;;;21.20;99.90;;;;;;4968640;28;20199;-83
2023/01/07 07:45:03;;;;;;;3.70;1.05;;;21.20;99.90;;;;;;4974915;28;20203;-82
2023/01/07 07:47:33;;;;;;;2.00;0.98;;;21.20;99.90;;;;;;4980458;28;20716;-82
2023/01/07 07:50:05;;;;;;;2.42;0.95;;;21.20;99.90;;;;;;4969042;28;20341;-82
2023/01/07 07:52:37;;;;;;;2.40;0.90;;;21.20;99.90;;;;;;4970275;28;20199;-82
2023/01/07 07:55:11;;;;;;;5.03;1.60;;;21.20;99.90;;;;;;4967320;28;20207;-83
2023/01/07 07:57:42;;;;;;;3.67;1.13;;;21.20;99.90;;;;;;4967027;28;20217;-82
2023/01/07 08:00:14;;;;;;;5.85;1.10;;;21.10;99.90;;;;;;4969094;28;20198;-81
2023/01/07 08:02:45;;;;;;;4.13;0.95;;;21.10;99.90;;;;;;4968382;28;20274;-82
2023/01/07 08:05:19;;;;;;;3.65;1.10;;;21.10;99.90;;;;;;4967974;28;20210;-81
2023/01/07 08:07:50;;;;;;;4.03;1.17;;;21.10;99.90;;;;;;4967808;28;20573;-83
2023/01/07 08:10:23;;;;;;;8.90;1.35;;;21.00;99.90;;;;;;4967417;28;20223;-82
2023/01/07 08:12:54;;;;;;;5.68;1.17;;;21.10;99.90;;;;;;4968838;28;20313;-84
2023/01/07 08:15:24;;;;;;;5.78;1.02;;;21.10;99.90;;;;;;4967604;28;20222;-83
2023/01/07 08:18:06;;;;;;;4.38;1.30;;;21.20;99.90;;;;;;4964070;28;20200;-85
2023/01/07 08:20:37;;;;;;;5.28;1.40;;;21.20;99.90;;;;;;4964522;28;20213;-82
2023/01/07 08:23:09;;;;;;;4.43;1.27;;;21.20;99.90;;;;;;4967274;28;20218;-84
2023/01/07 08:25:42;;;;;;;3.45;1.25;;;21.20;99.90;;;;;;4965417;28;20244;-83
2023/01/07 08:28:13;;;;;;;4.80;1.40;;;21.10;99.90;;;;;;4967161;28;20226;-83
2023/01/07 08:30:45;;;;;;;3.95;1.20;;;21.10;99.90;;;;;;4969665;28;20225;-83
2023/01/07 08:33:17;;;;;;;7.68;1.48;;;21.00;99.90;;;;;;4968408;28;20203;-82
2023/01/07 08:35:48;;;;;;;3.83;1.30;;;21.00;99.90;;;;;;4971541;28;20199;-82
2023/01/07 08:38:19;;;;;;;4.53;1.20;;;21.00;99.90;;;;;;4971142;28;20508;-82
2023/01/07 08:40:52;;;;;;;7.05;1.60;;;20.90;99.90;;;;;;4970294;28;20337;-82
2023/01/07 08:43:23;;;;;;;10.90;2.08;;;20.90;99.90;;;;;;4980274;28;20415;-84
2023/01/07 08:46:03;;;;;;;7.47;1.48;;;20.90;99.90;;;;;;4984771;28;20211;-83
2023/01/07 08:48:42;;;;;;;7.32;1.40;;;20.80;99.90;;;;;;4987419;28;20234;-82
2023/01/07 08:51:21;;;;;;;4.88;1.50;;;20.80;99.90;;;;;;4982896;28;20203;-82
2023/01/07 08:53:59;;;;;;;3.80;1.45;;;20.70;99.90;;;;;;4983038;28;20206;-85
2023/01/07 08:56:36;;;;;;;8.20;2.47;;;20.70;99.90;;;;;;4984048;28;20285;-84
2023/01/07 08:59:07;;;;;;;6.18;1.67;;;20.70;99.90;;;;;;4981446;28;20342;-85
2023/01/07 09:01:38;;;;;;;7.38;1.80;;;20.70;99.90;;;;;;4983521;28;20207;-85
2023/01/07 09:04:12;;;;;;;5.75;1.55;;;20.70;99.90;;;;;;4981801;28;20211;-84
2023/01/07 09:06:45;;;;;;;8.93;2.42;;;20.70;99.90;;;;;;4983124;28;20262;-86
2023/01/07 09:09:17;;;;;;;7.63;1.83;;;20.70;99.90;;;;;;4980983;28;20226;-86
2023/01/07 09:11:51;;;;;;;5.47;1.77;;;20.60;99.90;;;;;;4980138;28;20728;-85
2023/01/07 09:14:27;;;;;;;4.95;1.55;;;20.70;99.90;;;;;;4977647;28;20304;-86
2023/01/07 09:17:00;;;;;;;5.43;1.60;;;20.70;99.90;;;;;;4984615;28;20210;-85
2023/01/07 09:19:33;;;;;;;6.60;1.42;;;20.70;99.90;;;;;;4985811;28;20205;-85
2023/01/07 09:22:07;;;;;;;5.63;1.98;;;20.70;99.90;;;;;;4983356;28;20223;-86
2023/01/07 09:24:38;;;;;;;5.90;1.55;;;20.70;99.90;;;;;;4980327;28;20209;-84
2023/01/07 09:27:15;;;;;;;8.73;1.92;;;20.70;99.90;;;;;;4980896;28;20262;-83
2023/01/07 09:29:50;;;;;;;5.85;1.50;;;20.70;99.90;;;;;;4980563;28;20230;-85
2023/01/07 09:32:25;;;;;;;5.82;1.55;;;20.60;99.90;;;;;;4979399;28;20198;-85
2023/01/07 09:34:59;;;;;;;10.70;2.95;;;20.50;99.90;;;;;;4980712;28;20330;-85
2023/01/07 09:37:30;;;;;;;5.97;1.60;;;20.50;99.90;;;;;;4981368;28;20551;-83
2023/01/07 09:40:05;;;;;;;4.82;1.30;;;20.50;99.90;;;;;;4982624;28;20281;-86
2023/01/07 09:42:47;;;;;;;5.40;1.13;;;20.50;99.90;;;;;;4980978;28;20729;-85
2023/01/07 09:45:24;;;;;;;5.95;1.63;;;20.50;99.90;;;;;;4987212;28;20201;-85
2023/01/07 09:48:00;;;;;;;7.22;1.35;;;20.50;99.90;;;;;;4985886;28;20190;-87
2023/01/07 09:50:46;;;;;;;4.38;1.30;;;20.50;99.90;;;;;;4985177;28;20222;-86
2023/01/07 09:53:25;;;;;;;5.20;1.50;;;20.40;99.90;;;;;;4991959;28;20258;-85
2023/01/07 09:56:04;;;;;;;5.55;1.20;;;20.40;99.90;;;;;;4991192;28;20225;-86
2023/01/07 09:58:37;;;;;;;5.25;1.35;;;20.40;99.90;;;;;;4983620;28;20234;-86
2023/01/07 10:01:25;;;;;;;4.97;1.42;;;20.30;99.90;;;;;;4980292;28;20285;-87
2023/01/07 10:04:19;;;;;;;5.85;1.35;;;20.30;99.90;;;;;;4982847;28;20243;-85
2023/01/07 10:06:59;;;;;;;5.43;1.35;;;20.40;99.90;;;;;;4984039;28;20918;-86
2023/01/07 10:09:37;;;;;;;8.00;1.50;;;20.40;99.90;;;;;;4982455;28;20211;-85
2023/01/07 10:12:21;;;;;;;6.40;2.05;;;20.40;99.90;;;;;;4982461;28;20186;-85
2023/01/07 10:15:10;;;;;;;8.95;2.67;;;20.30;99.90;;;;;;4983408;28;20603;-86
2023/01/07 10:17:54;;;;;;;6.47;1.83;;;20.30;99.90;;;;;;4982217;28;20207;-86
2023/01/07 10:20:33;;;;;;;5.60;1.75;;;20.30;99.90;;;;;;4987779;28;20232;-85
2023/01/07 10:23:13;;;;;;;4.85;1.30;;;20.30;99.90;;;;;;4983217;28;20194;-86
2023/01/07 10:25:49;;;;;;;5.10;1.65;;;20.20;99.90;;;;;;4977964;28;20234;-86
2023/01/07 10:28:25;;;;;;;7.47;1.48;;;20.20;99.90;;;;;;4979134;28;20270;-87
2023/01/07 10:30:58;;;;;;;5.55;1.50;;;20.20;99.90;;;;;;4975739;28;20217;-86
2023/01/07 10:33:31;;;;;;;4.90;1.58;;;20.10;99.90;;;;;;4971076;28;20205;-85
2023/01/07 10:36:10;;;;;;;5.30;1.65;;;20.10;99.90;;;;;;4972837;28;20199;-84
2023/01/07 10:38:46;;;;;;;6.60;1.50;;;20.00;99.90;;;;;;4971294;28;20213;-82
2023/01/07 10:41:22;;;;;;;4.53;1.20;;;20.00;99.90;;;;;;4973002;28;20330;-83
2023/01/07 10:44:04;;;;;;;6.75;1.52;;;19.90;99.90;;;;;;4973237;28;20198;-84
2023/01/07 10:46:50;;;;;;;5.20;1.63;;;19.90;99.90;;;;;;4971026;28;20251;-84
2023/01/07 10:49:32;;;;;;;5.53;1.58;;;19.90;99.90;;;;;;4971033;28;20230;-85
2023/01/07 10:52:16;;;;;;;3.38;1.27;;;19.90;99.90;;;;;;4969350;28;20673;-84
2023/01/07 10:55:04;;;;;;;6.68;1.50;;;19.90;99.90;;;;;;4975805;28;20199;-83
2023/01/07 10:57:36;;;;;;;6.38;1.52;;;19.90;99.90;;;;;;4974249;28;20210;-84
2023/01/07 11:00:12;;;;;;;5.18;1.50;;;19.90;99.90;;;;;;4990765;28;20195;-83
2023/01/07 11:02:47;;;;;;;7.88;1.70;;;19.80;99.90;;;;;;4971299;28;20291;-83
2023/01/07 11:05:19;;;;;;;6.20;1.60;;;19.80;99.90;;;;;;4973059;28;20239;-86
2023/01/07 11:07:54;;;;;;;5.65;1.33;;;19.80;99.90;;;;;;4972912;28;20222;-85
2023/01/07 11:10:27;;;;;;;5.20;1.30;;;19.80;99.90;;;;;;4973813;28;20236;-85
2023/01/07 11:13:00;;;;;;;7.70;1.92;;;19.80;99.90;;;;;;4982134;28;20195;-84
2023/01/07 11:15:33;;;;;;;7.65;1.80;;;19.80;99.90;;;;;;4978097;28;20681;-85
2023/01/07 11:18:08;;;;;;;5.82;1.75;;;19.90;99.90;;;;;;4977078;28;20201;-85
2023/01/07 11:20:51;;;;;;;7.57;2.13;;;19.80;99.90;;;;;;4981136;28;20201;-84
2023/01/07 11:23:34;;;;;;;6.53;1.98;;;19.80;99.90;;;;;;4976468;28;20337;-84
2023/01/07 11:26:15;;;;;;;10.82;2.20;;;19.80;99.90;;;;;;4975757;28;20258;-86
2023/01/07 11:28:53;;;;;;;5.45;1.60;;;19.80;99.90;;;;;;4974863;28;20291;-83
2023/01/07 11:31:43;;;;;;;6.22;1.58;;;19.80;99.90;;;;;;4977035;28;20226;-83
2023/01/07 11:34:25;;;;;;;6.93;1.65;;;19.80;99.90;;;;;;4975959;28;20214;-83
2023/01/07 11:36:55;;;;;;;8.43;1.80;;;19.80;99.90;;;;;;4973391;28;20195;-83
2023/01/07 11:39:28;;;;;;;6.47;1.50;;;19.80;99.90;;;;;;4979552;28;20975;-83
2023/01/07 11:42:37;;;;;;;8.55;2.15;;;19.80;99.90;;;;;;4973972;28;20277;-83
2023/01/07 11:45:15;;;;;;;6.00;1.50;;;19.80;99.90;;;;;;4978556;28;20222;-83
2023/01/07 11:47:53;;;;;;;8.32;2.17;;;19.80;99.90;;;;;;4975722;28;22606;-83
2023/01/07 11:50:36;;;;;;;6.75;1.73;;;19.70;99.90;;;;;;4971542;28;20230;-82
2023/01/07 11:53:23;;;;;;;6.57;1.70;;;19.70;99.90;;;;;;4975805;28;20247;-84
2023/01/07 11:56:01;;;;;;;5.45;1.40;;;19.70;99.90;;;;;;4979558;28;20305;-84
2023/01/07 11:58:35;;;;;;;7.00;2.00;;;19.70;99.90;;;;;;4981877;28;20199;-82
2023/01/07 12:01:17;;;;;;;8.00;1.73;;;19.80;99.90;;;;;;4984113;28;20190;-83
2023/01/07 12:04:02;;;;;;;6.75;1.60;;;19.70;99.90;;;;;;4968952;28;20223;-82
2023/01/07 12:06:37;;;;;;;7.07;1.60;;;19.70;99.90;;;;;;4971396;28;20219;-84
2023/01/07 12:09:22;;;;;;;7.95;1.80;;;19.70;99.90;;;;;;4972826;28;20209;-84
2023/01/07 12:11:53;;;;;;;8.25;2.10;;;19.70;99.90;;;;;;4967790;28;20222;-82
2023/01/07 12:14:30;;;;;;;9.60;1.77;;;19.70;99.90;;;;;;4973375;28;20202;-82
2023/01/07 12:17:12;;;;;;;10.88;2.42;;;19.70;99.90;;;;;;4971448;28;20222;-81
2023/01/07 12:20:10;;;;;;;6.25;1.80;;;19.60;99.90;;;;;;4981094;28;20194;-82
2023/01/07 12:22:51;;;;;;;8.80;2.00;;;19.60;99.90;;;;;;4980709;28;20227;-81
2023/01/07 12:25:36;;;;;;;7.32;1.67;;;19.60;99.90;;;;;;4975102;28;20211;-82
2023/01/07 12:28:13;;;;;;;6.47;1.80;;;19.60;99.90;;;;;;4971288;28;20717;-81
2023/01/07 12:31:01;;;;;;;7.13;1.80;;;19.60;99.90;;;;;;4976327;28;20242;-81
2023/01/07 12:33:55;;;;;;;11.82;1.95;;;19.60;99.90;;;;;;4972687;28;20821;-81
2023/01/07 12:36:36;;;;;;;10.13;1.75;;;19.60;99.90;;;;;;4976941;28;20219;-81
2023/01/07 12:39:17;;;;;;;8.20;1.63;;;19.60;99.90;;;;;;4975151;28;20198;-82
2023/01/07 12:41:58;;;;;;;7.10;1.58;;;19.60;99.90;;;;;;4973076;28;20198;-81
2023/01/07 12:44:29;;;;;;;6.22;1.70;;;19.60;99.90;;;;;;4969338;28;20732;-81
2023/01/07 12:47:09;;;;;;;7.93;1.70;;;19.60;99.90;;;;;;4970998;28;20203;-82
2023/01/07 12:49:49;;;;;;;10.45;1.98;;;19.60;99.90;;;;;;4972425;28;20226;-82
2023/01/07 12:52:23;;;;;;;6.20;1.70;;;19.60;99.90;;;;;;4970258;28;20229;-82
2023/01/07 12:55:00;;;;;;;6.18;1.60;;;19.60;99.90;;;;;;4975241;28;20194;-83
2023/01/07 12:57:35;;;;;;;9.13;1.75;;;19.60;99.90;;;;;;4976534;28;20344;-84
2023/01/07 13:00:16;;;;;;;5.85;1.60;;;19.60;99.90;;;;;;4982981;28;21627;-85
2023/01/07 13:02:56;;;;;;;6.03;1.70;;;19.60;99.90;;;;;;4987334;28;20289;-86
2023/01/07 13:05:32;;;;;;;9.85;2.08;;;19.60;99.90;;;;;;4984606;28;20631;-85
2023/01/07 13:08:11;;;;;;;6.40;1.58;;;19.60;99.90;;;;;;5013701;23;20220;-86
2023/01/07 13:10:50;;;;;;;7.32;1.52;;;19.60;99.90;;;;;;5022978;28;20229;-85
2023/01/07 13:13:26;;;;;;;6.85;1.48;;;19.60;99.90;;;;;;5030236;28;20221;-83
2023/01/07 13:15:57;;;;;;;10.77;1.90;;;19.60;99.90;;;;;;5023102;28;20249;-85
2023/01/07 13:18:32;;;;;;;7.20;1.58;;;19.60;99.90;;;;;;5028994;28;20204;-84
2023/01/07 13:21:08;;;;;;;8.75;1.80;;;19.60;99.90;;;;;;5029503;28;20304;-84
2023/01/07 13:24:06;;;;;;;7.50;1.58;;;19.60;99.90;;;;;;5035269;28;20843;-85
2023/01/07 13:26:48;;;;;;;7.03;1.70;;;19.60;99.90;;;;;;5022323;28;20262;-84
2023/01/07 13:29:58;;;;;;;12.90;1.77;;;19.60;99.90;;;;;;5138156;23;21422;-83